Time;durP1;ratioP1;P1;durP2;ratioP2;P2;SDS_P1;SDS_P2;PMS_P1;PMS_P2;Temp;Humidity;BMP_temperature;BMP_pressure;BME280_temperature;BME280_humidity;BME280_pressure;Samples;Min_cycle;Max_cycle;Signal;HPM_P1;HPM_P2
2022/05/11 00:01:13;;;;;;;5.20;3.95;;;;;;;17.29;48.25;99284.13;5107526;28;20086;-76
2022/05/11 00:03:47;;;;;;;4.68;3.58;;;;;;;17.28;48.40;99287.78;5107724;28;20089;-76
2022/05/11 00:06:19;;;;;;;4.77;4.10;;;;;;;16.84;49.20;99245.94;5107922;28;20058;-76
2022/05/11 00:08:51;;;;;;;5.63;4.15;;;;;;;17.08;48.82;99285.88;5107776;28;20247;-77
2022/05/11 00:11:26;;;;;;;6.20;4.25;;;;;;;17.10;48.75;99289.28;5107457;28;20081;-76
2022/05/11 00:13:59;;;;;;;6.97;4.32;;;;;;;17.15;48.55;99282.56;5107664;28;20128;-76
2022/05/11 00:16:33;;;;;;;6.57;4.93;;;;;;;17.06;49.41;99282.47;5107642;28;20065;-76
2022/05/11 00:19:07;;;;;;;6.03;3.93;;;;;;;17.00;49.59;99279.34;5107351;28;20105;-76
2022/05/11 00:21:39;;;;;;;5.78;4.32;;;;;;;16.93;49.26;99283.50;5107212;28;20040;-76
2022/05/11 00:24:11;;;;;;;5.90;4.13;;;;;;;16.96;49.55;99279.72;5107535;28;20044;-76
2022/05/11 00:26:43;;;;;;;4.95;4.40;;;;;;;16.93;49.59;99279.97;5107518;28;20055;-75
2022/05/11 00:29:16;;;;;;;5.60;4.43;;;;;;;16.92;49.56;99279.13;5106529;28;20231;-76
2022/05/11 00:31:49;;;;;;;5.43;4.18;;;;;;;16.89;49.50;99271.34;5107349;28;20219;-76
2022/05/11 00:34:22;;;;;;;5.78;4.70;;;;;;;16.82;50.05;99270.16;5107026;28;20044;-75
2022/05/11 00:36:54;;;;;;;4.73;3.40;;;;;;;16.83;49.59;99324.53;5107839;28;20047;-76
2022/05/11 00:39:27;;;;;;;4.38;3.78;;;;;;;15.41;49.83;99071.25;5107129;28;20182;-76
2022/05/11 00:42:01;;;;;;;5.95;4.20;;;;;;;16.73;50.18;99276.25;5107072;28;20086;-76
2022/05/11 00:44:33;;;;;;;5.72;4.38;;;;;;;16.71;50.49;99283.56;5107116;28;20048;-76
2022/05/11 00:47:11;;;;;;;5.05;3.60;;;;;;;16.11;51.51;99203.75;5107053;28;20044;-76
2022/05/11 00:49:48;;;;;;;4.93;4.00;;;;;;;16.27;52.15;99228.28;5106976;28;20040;-76
2022/05/11 00:52:24;;;;;;;5.25;4.72;;;;;;;16.51;50.79;99271.75;5106707;28;20047;-76
2022/05/11 00:55:02;;;;;;;5.72;4.45;;;;;;;16.28;51.58;99224.63;5106684;28;20043;-76
2022/05/11 00:57:39;;;;;;;4.88;3.90;;;;;;;16.46;52.08;99260.59;5106961;28;20085;-76
2022/05/11 01:00:13;;;;;;;5.97;3.63;;;;;;;15.07;51.15;99027.69;5106779;28;20048;-76
2022/05/11 01:02:48;;;;;;;5.95;4.38;;;;;;;16.53;50.54;99268.97;5106464;28;20040;-76
2022/05/11 01:05:22;;;;;;;5.03;3.88;;;;;;;16.52;50.64;99270.78;5106532;28;20089;-76
2022/05/11 01:07:56;;;;;;;10.63;4.82;;;;;;;16.52;51.02;99267.25;5106442;28;20040;-76
2022/05/11 01:10:32;;;;;;;;;;;;;;;16.36;53.69;99271.19;5106927;28;20177;-76
2022/05/11 01:13:09;;;;;;;4.50;3.50;;;;;;;16.44;51.80;99267.03;5106641;28;19977;-76
2022/05/11 01:15:40;;;;;;;5.10;3.70;;;;;;;16.50;50.97;99263.88;5106336;28;20288;-76
2022/05/11 01:18:10;;;;;;;6.30;4.25;;;;;;;16.43;51.02;99258.16;5106283;28;20349;-76
2022/05/11 01:20:41;;;;;;;4.68;3.85;;;;;;;16.45;51.33;99263.38;5106206;28;20062;-76
2022/05/11 01:23:17;;;;;;;5.18;4.38;;;;;;;16.38;52.47;99271.06;5105398;28;20121;-76
2022/05/11 01:25:46;;;;;;;5.25;4.13;;;;;;;16.33;51.59;99266.06;5106572;28;20346;-75
2022/05/11 01:28:17;;;;;;;5.22;4.20;;;;;;;16.36;51.31;99267.66;5106335;28;20288;-76
2022/05/11 01:30:48;;;;;;;6.20;3.70;;;;;;;16.39;51.37;99277.25;5106147;28;20079;-76
2022/05/11 01:33:23;;;;;;;5.78;4.20;;;;;;;16.23;51.58;99266.94;5105984;28;20044;-76
2022/05/11 01:36:05;;;;;;;9.02;4.70;;;;;;;16.28;52.78;99275.44;5106158;28;20048;-76
2022/05/11 01:38:41;;;;;;;7.47;4.22;;;;;;;16.26;52.15;99266.69;5105700;28;20296;-76
2022/05/11 01:41:20;;;;;;;6.18;4.75;;;;;;;16.20;53.39;99277.88;5105267;28;20040;-76
2022/05/11 01:43:52;;;;;;;4.00;3.60;;;;;;;16.20;51.63;99278.72;5106026;28;20040;-76
2022/05/11 01:46:25;;;;;;;5.93;4.50;;;;;;;16.24;51.92;99280.19;5106075;28;20040;-76
2022/05/11 01:48:57;;;;;;;6.47;4.40;;;;;;;16.18;52.24;99274.47;5105742;28;20051;-76
2022/05/11 01:51:29;;;;;;;6.65;4.60;;;;;;;16.10;52.69;99271.56;5105975;28;20082;-76
2022/05/11 01:54:02;;;;;;;5.22;4.25;;;;;;;16.12;52.49;99274.97;5105709;28;20303;-76
2022/05/11 01:56:35;;;;;;;5.15;4.25;;;;;;;16.02;53.10;99280.19;5105644;28;20235;-76
2022/05/11 01:59:08;;;;;;;4.65;3.92;;;;;;;16.04;52.70;99273.75;5105613;28;20048;-76
2022/05/11 02:01:41;;;;;;;6.60;4.93;;;;;;;16.00;52.75;99274.09;5105474;28;20346;-76
2022/05/11 02:09:48;;;;;;;7.18;4.45;;;;;;;15.93;52.98;99279.06;5104561;28;20086;-75
2022/05/11 02:12:22;;;;;;;5.07;4.30;;;;;;;15.90;53.63;99273.13;5105335;28;20093;-76
2022/05/11 02:14:54;;;;;;;5.88;4.50;;;;;;;15.85;53.37;99276.16;5105497;28;20040;-76
2022/05/11 02:17:26;;;;;;;5.10;4.07;;;;;;;15.88;52.98;99267.06;5105765;28;20040;-75
2022/05/11 02:19:58;;;;;;;6.07;4.40;;;;;;;15.82;53.15;99276.41;5105470;28;20350;-76
2022/05/11 02:22:30;;;;;;;7.75;4.65;;;;;;;15.75;53.39;99277.00;5105138;28;20056;-76
2022/05/11 02:25:03;;;;;;;7.65;4.22;;;;;;;15.84;53.25;99277.13;5105663;28;20040;-75
2022/05/11 02:27:37;;;;;;;5.20;4.70;;;;;;;15.52;53.32;99223.50;5105627;28;20288;-76
2022/05/11 02:30:12;;;;;;;6.00;5.03;;;;;;;15.85;53.56;99276.16;5106332;28;20052;-76
2022/05/11 02:32:44;;;;;;;5.72;4.57;;;;;;;15.79;53.37;99281.13;5105648;28;20242;-76
2022/05/11 02:35:17;;;;;;;7.18;4.95;;;;;;;15.82;53.21;99272.88;5105557;28;20040;-76
2022/05/11 02:37:51;;;;;;;4.75;4.25;;;;;;;15.82;53.65;99275.53;5105328;28;20084;-76
2022/05/11 02:40:26;;;;;;;6.22;5.00;;;;;;;15.78;54.00;99274.09;5105370;28;20292;-76
2022/05/11 02:43:01;;;;;;;5.45;4.60;;;;;;;15.73;53.53;99278.94;5105135;28;20044;-76
2022/05/11 02:45:35;;;;;;;5.55;5.00;;;;;;;14.08;53.41;98988.16;5105499;28;20098;-76
2022/05/11 02:48:08;;;;;;;6.05;4.68;;;;;;;15.47;53.46;99224.81;5105294;28;20040;-76
2022/05/11 02:50:44;;;;;;;5.57;4.38;;;;;;;15.70;54.13;99274.69;5105986;28;20044;-76
2022/05/11 02:53:16;;;;;;;6.35;4.70;;;;;;;15.72;53.59;99272.75;5109279;28;20058;-76
2022/05/11 02:55:49;;;;;;;5.60;4.35;;;;;;;14.03;54.32;98997.47;5109644;28;20028;-76
2022/05/11 02:58:27;;;;;;;6.05;5.05;;;;;;;15.65;54.42;99267.03;5109142;28;20044;-76
2022/05/11 03:01:02;;;;;;;5.00;4.20;;;;;;;15.64;54.04;99267.97;5108813;28;20038;-76
2022/05/11 03:03:35;;;;;;;7.03;4.93;;;;;;;15.69;53.88;99268.47;5108723;28;20211;-76
2022/05/11 03:06:07;;;;;;;5.28;4.78;;;;;;;12.97;53.72;99216.22;5108817;28;20231;-76
2022/05/11 03:08:39;;;;;;;4.95;4.43;;;;;;;15.69;53.89;99265.81;5108973;28;20043;-76
2022/05/11 03:11:11;;;;;;;6.90;4.07;;;;;;;15.69;54.11;99264.97;5108619;28;20044;-76
2022/05/11 03:13:45;;;;;;;6.00;4.97;;;;;;;15.14;54.14;99175.72;5108610;28;20186;-76
2022/05/11 03:16:17;;;;;;;5.50;4.63;;;;;;;15.58;54.32;99271.09;5108892;28;20040;-76
2022/05/11 03:18:50;;;;;;;7.35;5.07;;;;;;;15.56;53.88;99269.50;5108915;28;20048;-75
2022/05/11 03:21:23;;;;;;;6.53;4.70;;;;;;;15.51;54.95;99269.03;5108927;28;20044;-76
2022/05/11 03:23:56;;;;;;;7.13;5.10;;;;;;;15.42;55.26;99267.91;5107671;28;20063;-76
2022/05/11 03:26:28;;;;;;;6.70;5.05;;;;;;;13.90;54.63;99041.97;5108410;28;20044;-76
2022/05/11 03:29:05;;;;;;;4.85;4.07;;;;;;;14.15;54.78;99064.97;5108584;28;20093;-76
2022/05/11 03:31:39;;;;;;;7.30;4.25;;;;;;;15.37;54.91;99273.59;5108808;28;20141;-76
2022/05/11 03:37:00;;;;;;;5.28;4.57;;;;;;;15.31;55.00;99265.19;5108149;28;20081;-76
2022/05/11 03:39:32;;;;;;;6.20;4.70;;;;;;;15.33;54.96;99272.13;5107572;28;20081;-76
2022/05/11 03:42:06;;;;;;;7.85;4.78;;;;;;;15.33;54.77;99276.63;5108331;28;20040;-76
2022/05/11 03:44:40;;;;;;;5.93;4.32;;;;;;;15.31;55.40;99284.75;5108308;28;20044;-76
2022/05/11 03:47:12;;;;;;;11.25;4.85;;;;;;;15.35;54.95;99272.00;5108325;28;20089;-76
2022/05/11 03:49:44;;;;;;;8.07;4.68;;;;;;;15.33;54.89;99273.94;5108124;28;20040;-75
2022/05/11 03:52:18;;;;;;;5.93;5.30;;;;;;;15.36;55.19;99277.22;5108179;28;20040;-76
2022/05/11 03:54:50;;;;;;;5.90;4.82;;;;;;;15.30;55.09;99272.34;5107060;28;20043;-76
2022/05/11 03:57:22;;;;;;;6.82;5.00;;;;;;;15.29;55.08;99269.81;5108159;28;20056;-76
2022/05/11 03:59:55;;;;;;;6.43;5.15;;;;;;;15.35;55.06;99269.34;5108122;28;20036;-77
2022/05/11 04:02:27;;;;;;;6.63;4.60;;;;;;;15.37;54.75;99272.75;5106873;28;20051;-76
2022/05/11 04:05:00;;;;;;;7.55;4.65;;;;;;;15.41;54.63;99276.88;5107538;28;20093;-76
2022/05/11 04:07:32;;;;;;;6.10;5.13;;;;;;;15.43;54.59;99282.97;5107619;28;20044;-77
2022/05/11 04:10:06;;;;;;;9.70;5.57;;;;;;;15.39;54.74;99282.34;5107526;28;20044;-76
2022/05/11 04:12:38;;;;;;;13.43;9.20;;;;;;;13.65;55.01;98979.84;5107477;28;20040;-76
2022/05/11 04:15:13;;;;;;;13.40;11.73;;;;;;;15.17;55.34;99231.53;5107126;28;20044;-76
2022/05/11 04:17:45;;;;;;;14.75;11.63;;;;;;;15.24;54.82;99223.91;5107443;28;20044;-76
2022/05/11 04:20:19;;;;;;;11.35;8.95;;;;;;;15.57;54.63;99279.22;5107138;28;20081;-76
2022/05/11 04:22:51;;;;;;;12.23;10.05;;;;;;;15.27;54.79;99234.34;5107021;28;20056;-76
2022/05/11 04:25:24;;;;;;;29.77;21.63;;;;;;;15.55;54.80;99284.69;5107016;28;20089;-76
2022/05/11 04:27:56;;;;;;;22.67;18.35;;;;;;;15.57;55.09;99282.75;5107143;28;20062;-76
2022/05/11 04:30:31;;;;;;;20.95;15.98;;;;;;;15.57;55.29;99280.09;5107047;28;20292;-76
2022/05/11 04:33:03;;;;;;;18.42;13.75;;;;;;;15.63;54.83;99290.28;5106876;28;20062;-76
2022/05/11 04:35:36;;;;;;;13.15;9.82;;;;;;;15.65;55.05;99285.72;5106843;28;20047;-76
2022/05/11 04:38:09;;;;;;;13.52;10.30;;;;;;;15.70;55.14;99288.03;5107294;28;20040;-76
2022/05/11 04:40:39;;;;;;;11.00;8.98;;;;;;;15.74;54.81;99292.16;5106852;28;20327;-76
2022/05/11 04:43:10;;;;;;;10.50;7.80;;;;;;;15.70;55.08;99283.53;5107787;28;20158;-76
2022/05/11 04:45:42;;;;;;;9.00;7.20;;;;;;;15.50;55.15;99246.81;5106908;28;20028;-76
2022/05/11 04:48:17;;;;;;;8.80;7.40;;;;;;;15.84;55.31;99289.63;5105948;28;20199;-76
2022/05/11 04:50:46;;;;;;;6.68;5.75;;;;;;;15.86;55.10;99296.56;5106862;28;20228;-76
2022/05/11 04:53:17;;;;;;;9.00;6.70;;;;;;;15.37;55.22;99209.50;5106530;28;20207;-77
2022/05/11 04:55:46;;;;;;;8.95;6.30;;;;;;;15.69;55.06;99248.94;5106014;28;20207;-76
2022/05/11 04:58:15;;;;;;;8.50;6.25;;;;;;;15.94;55.32;99298.63;5106889;28;20326;-76
2022/05/11 05:00:46;;;;;;;6.80;5.45;;;;;;;15.94;55.18;99299.50;5106918;28;20288;-76
2022/05/11 05:03:16;;;;;;;8.38;5.97;;;;;;;16.00;54.72;99300.84;5106738;28;20243;-75
2022/05/11 05:05:45;;;;;;;12.10;6.22;;;;;;;16.04;54.84;99294.28;5106505;28;20306;-75
2022/05/11 05:08:15;;;;;;;8.38;6.10;;;;;;;16.06;55.24;99295.00;5106524;28;20107;-75
2022/05/11 05:10:46;;;;;;;10.00;6.50;;;;;;;13.91;54.96;98934.44;5106860;28;20028;-76
2022/05/11 05:13:15;;;;;;;7.97;7.18;;;;;;;16.18;54.57;99295.88;5106562;28;20099;-76
2022/05/11 05:15:55;;;;;;;9.70;7.10;;;;;;;16.22;55.85;99308.88;5106620;28;20039;-75
2022/05/11 05:18:28;;;;;;;8.68;7.10;;;;;;;16.24;54.40;99301.56;5106430;28;20082;-75
2022/05/11 05:21:00;;;;;;;12.98;8.88;;;;;;;16.30;54.36;99308.25;5106528;28;20085;-76
2022/05/11 05:23:34;;;;;;;11.57;8.00;;;;;;;16.35;54.43;99303.41;5105844;28;20064;-75
2022/05/11 05:26:06;;;;;;;15.32;10.93;;;;;;;16.39;54.29;99307.53;5106217;28;20044;-76
2022/05/11 05:31:31;;;;;;;13.70;10.50;;;;;;;16.49;54.41;99299.63;5105769;28;20089;-76
2022/05/11 05:34:05;;;;;;;13.45;9.80;;;;;;;16.56;53.94;99307.03;5106163;28;20341;-76
2022/05/11 05:36:37;;;;;;;8.90;7.43;;;;;;;16.60;54.01;99303.13;5106009;28;20046;-76
2022/05/11 05:39:10;;;;;;;9.10;7.55;;;;;;;16.63;53.97;99299.34;5106228;28;20227;-77
2022/05/11 05:41:42;;;;;;;10.88;9.68;;;;;;;16.70;53.78;99299.75;5105777;28;20227;-76
2022/05/11 05:44:14;;;;;;;8.88;7.35;;;;;;;16.71;52.94;99291.59;5106058;28;20043;-76
2022/05/11 05:46:48;;;;;;;6.10;4.90;;;;;;;16.77;52.58;99303.63;5105907;28;20246;-76
2022/05/11 05:49:20;;;;;;;7.10;5.25;;;;;;;16.79;52.75;99305.19;5105925;28;20040;-76
2022/05/11 05:51:52;;;;;;;7.95;5.32;;;;;;;16.83;52.66;99303.97;5105675;28;20050;-76
2022/05/11 05:54:25;;;;;;;7.35;6.40;;;;;;;16.87;53.05;99300.06;5105740;28;20048;-76
2022/05/11 05:56:57;;;;;;;9.60;7.38;;;;;;;16.92;52.47;99303.22;5105998;28;20048;-77
2022/05/11 05:59:29;;;;;;;10.82;7.55;;;;;;;16.95;52.40;99308.31;5105724;28;20040;-76
2022/05/11 06:02:03;;;;;;;9.10;5.68;;;;;;;16.97;52.69;99324.25;5104910;28;20062;-77
2022/05/11 06:04:36;;;;;;;8.25;7.05;;;;;;;16.99;52.31;99309.75;5105723;28;20040;-76
2022/05/11 06:07:08;;;;;;;9.93;7.38;;;;;;;17.04;52.15;99311.22;5105689;28;20040;-76
2022/05/11 06:09:41;;;;;;;8.43;6.13;;;;;;;17.05;51.95;99315.59;5105934;28;20044;-76
2022/05/11 06:12:15;;;;;;;7.20;5.32;;;;;;;17.08;52.33;99313.50;5105836;28;20284;-76
2022/05/11 06:14:47;;;;;;;6.78;4.55;;;;;;;17.10;52.04;99311.56;5105917;28;20054;-76
2022/05/11 06:17:23;;;;;;;10.38;6.57;;;;;;;16.65;51.79;99227.84;5105876;28;20085;-75
2022/05/11 06:19:56;;;;;;;10.32;5.35;;;;;;;15.14;51.30;98969.34;5104759;28;20040;-75
2022/05/11 06:22:28;;;;;;;6.28;4.82;;;;;;;17.25;51.41;99313.00;5105254;28;20056;-75
2022/05/11 06:25:01;;;;;;;4.68;4.00;;;;;;;15.82;51.29;99051.09;5105360;28;20346;-76
2022/05/11 06:27:33;;;;;;;5.00;4.47;;;;;;;16.26;50.86;99116.94;5109100;28;20173;-75
2022/05/11 06:30:06;;;;;;;8.77;5.22;;;;;;;16.95;50.52;99222.66;5109361;28;20204;-76
2022/05/11 06:32:40;;;;;;;5.33;4.20;;;;;;;17.59;50.54;99308.31;5109853;28;20093;-76
2022/05/11 06:35:12;;;;;;;6.60;4.70;;;;;;;17.00;49.83;99191.00;5109478;28;20296;-76
2022/05/11 06:37:45;;;;;;;10.77;4.43;;;;;;;17.00;49.67;99206.19;5108470;28;20093;-76
2022/05/11 06:40:17;;;;;;;6.05;4.15;;;;;;;18.26;48.91;99312.41;5109592;28;20397;-76
2022/05/11 06:42:49;;;;;;;5.68;4.28;;;;;;;18.69;47.63;99312.19;5109272;28;20179;-76
2022/05/11 06:45:23;;;;;;;5.93;4.18;;;;;;;19.06;46.79;99295.44;5109122;28;20048;-76
2022/05/11 06:47:57;;;;;;;6.00;4.28;;;;;;;18.75;46.37;99223.03;5109535;28;20040;-76
2022/05/11 06:50:29;;;;;;;8.13;3.95;;;;;;;19.51;45.84;99299.31;5109257;28;20047;-75
2022/05/11 06:53:09;;;;;;;4.75;4.05;;;;;;;19.70;45.30;99303.81;5109272;28;20044;-75
2022/05/11 07:01:22;;;;;;;6.95;4.53;;;;;;;20.15;44.90;99413.47;5109078;28;20089;-76
2022/05/11 07:03:55;;;;;;;10.35;4.63;;;;;;;20.27;44.22;99303.88;5107951;28;20043;-76
2022/05/11 07:06:27;;;;;;;5.25;3.63;;;;;;;20.37;43.93;99296.59;5108736;28;20330;-76
2022/05/11 07:09:00;;;;;;;6.40;4.13;;;;;;;20.44;43.47;99295.00;5108511;28;20085;-76
2022/05/11 07:14:22;;;;;;;4.82;3.75;;;;;;;20.79;43.34;99299.66;5108538;28;20040;-76
2022/05/11 07:16:55;;;;;;;6.13;4.07;;;;;;;20.89;43.02;99299.59;5108744;28;20048;-76
2022/05/11 07:19:29;;;;;;;4.40;3.67;;;;;;;21.01;42.48;99292.97;5090841;28;20220;-75
2022/05/11 07:22:02;;;;;;;4.45;3.40;;;;;;;20.47;42.63;99181.66;5108111;28;20048;-76
2022/05/11 07:24:35;;;;;;;5.13;3.78;;;;;;;21.32;43.33;99283.56;5108341;28;20043;-76
2022/05/11 07:27:07;;;;;;;5.50;4.30;;;;;;;21.51;42.68;99284.38;5108130;28;20040;-76
2022/05/11 07:29:39;;;;;;;5.72;4.15;;;;;;;21.59;42.47;99279.06;5107427;28;20040;-76
2022/05/11 07:32:11;;;;;;;5.13;4.22;;;;;;;21.71;42.50;99281.34;5108129;28;20350;-76
2022/05/11 07:34:45;;;;;;;6.35;4.53;;;;;;;21.82;42.52;99284.81;5107979;28;20296;-76
2022/05/11 07:37:17;;;;;;;7.78;4.57;;;;;;;21.48;42.79;99204.66;5106608;28;20300;-76
2022/05/11 07:39:51;;;;;;;11.25;4.22;;;;;;;22.00;42.88;99286.47;5107799;28;20093;-76
2022/05/11 07:42:23;;;;;;;5.97;3.78;;;;;;;22.16;42.58;99284.88;5107829;28;20128;-76
2022/05/11 07:44:55;;;;;;;5.22;3.90;;;;;;;22.31;41.72;99284.13;5107644;28;20040;-76
2022/05/11 07:47:28;;;;;;;6.32;4.05;;;;;;;22.29;42.04;99234.00;5107920;28;20132;-76
2022/05/11 07:50:01;;;;;;;4.93;3.97;;;;;;;22.47;40.96;99225.81;5107624;28;20226;-76
2022/05/11 07:52:34;;;;;;;5.20;3.33;;;;;;;22.83;40.73;99267.00;5107534;28;20044;-76
2022/05/11 07:55:07;;;;;;;5.15;4.05;;;;;;;22.96;40.77;99270.06;5107505;28;20040;-76
2022/05/11 08:00:29;;;;;;;7.57;3.83;;;;;;;23.08;40.59;99274.13;5107128;28;20378;-76
2022/05/11 08:03:02;;;;;;;5.78;4.00;;;;;;;23.24;40.32;99266.06;5107148;28;20040;-76
2022/05/11 08:05:35;;;;;;;4.93;3.92;;;;;;;23.11;39.83;99233.25;5107360;28;20040;-75
2022/05/11 08:08:10;;;;;;;6.47;3.85;;;;;;;23.13;39.51;99223.13;5107409;28;20040;-75
2022/05/11 08:10:45;;;;;;;5.03;3.90;;;;;;;19.19;38.96;98555.47;5107552;28;20063;-76
2022/05/11 08:13:13;;;;;;;5.65;3.88;;;;;;;23.51;39.44;99266.78;5106558;28;20241;-76
2022/05/11 08:15:47;;;;;;;6.32;4.75;;;;;;;23.58;39.17;99265.09;5107525;28;20085;-76
2022/05/11 08:18:18;;;;;;;6.93;3.70;;;;;;;23.66;39.45;99263.22;5107264;28;20181;-76
2022/05/11 08:20:49;;;;;;;5.57;3.58;;;;;;;23.76;38.12;99262.19;5107419;28;20208;-76
2022/05/11 08:23:18;;;;;;;6.28;3.25;;;;;;;23.94;38.03;99270.97;5106771;28;20255;-76
2022/05/11 08:25:49;;;;;;;4.57;3.55;;;;;;;24.07;38.12;99262.34;5107253;28;20039;-76
2022/05/11 08:28:21;;;;;;;4.97;3.70;;;;;;;24.27;37.98;99267.19;5106268;28;20173;-76
2022/05/11 08:33:44;;;;;;;5.13;3.78;;;;;;;24.36;36.19;99268.00;5106084;28;20097;-77
2022/05/11 08:36:20;;;;;;;6.68;3.53;;;;;;;24.32;35.94;99263.94;5106817;28;20085;-76
2022/05/11 08:38:55;;;;;;;3.92;3.47;;;;;;;24.46;37.09;99256.97;5106803;28;20292;-76
2022/05/11 08:41:36;;;;;;;4.22;3.40;;;;;;;24.22;35.90;99206.44;5106618;28;20101;-76
2022/05/11 08:44:13;;;;;;;4.18;3.35;;;;;;;24.74;36.21;99260.06;5106437;28;20040;-76
2022/05/11 08:46:54;;;;;;;4.38;3.30;;;;;;;24.39;35.32;99170.16;5106464;28;20276;-76
2022/05/11 08:49:42;;;;;;;6.22;3.53;;;;;;;25.06;34.99;99254.50;5106461;28;20085;-76
2022/05/11 08:52:23;;;;;;;4.85;3.33;;;;;;;25.13;35.19;99239.19;5106771;28;20137;-76
2022/05/11 08:55:02;;;;;;;6.60;3.92;;;;;;;25.43;34.38;99234.75;5106463;28;20040;-76
2022/05/11 08:57:36;;;;;;;6.07;3.65;;;;;;;25.44;35.44;99238.31;5106716;28;20044;-76
2022/05/11 09:00:12;;;;;;;3.63;3.05;;;;;;;25.60;34.95;99224.59;5106540;28;20040;-76
2022/05/11 09:02:51;;;;;;;4.20;3.17;;;;;;;25.13;34.42;99143.44;5106325;28;20253;-76
2022/05/11 09:05:26;;;;;;;5.15;3.17;;;;;;;25.64;35.21;99233.22;5105991;28;20235;-76
2022/05/11 09:08:00;;;;;;;4.65;3.67;;;;;;;25.78;34.96;99226.97;5105516;28;20292;-76
2022/05/11 09:10:35;;;;;;;4.90;3.25;;;;;;;25.83;34.54;99217.22;5106424;28;20354;-77
2022/05/11 09:13:09;;;;;;;3.45;2.63;;;;;;;25.44;35.20;99179.47;5106003;28;20040;-76
2022/05/11 09:15:55;;;;;;;5.82;3.97;;;;;;;25.75;32.88;99190.19;5106213;28;20040;-76
2022/05/11 09:18:38;;;;;;;4.20;3.00;;;;;;;26.03;32.54;99230.28;5105149;28;20040;-76
2022/05/11 09:21:24;;;;;;;7.50;2.88;;;;;;;25.56;32.50;99147.31;5105857;28;20046;-76
2022/05/11 09:24:09;;;;;;;6.85;3.65;;;;;;;26.17;31.96;99221.31;5105421;28;20239;-76
2022/05/11 09:26:46;;;;;;;4.35;3.28;;;;;;;26.27;32.73;99210.16;5105958;28;20044;-75
2022/05/11 09:29:22;;;;;;;3.78;3.00;;;;;;;26.34;33.12;99221.94;5106077;28;20181;-75
2022/05/11 09:31:54;;;;;;;4.65;2.70;;;;;;;26.58;33.07;99210.75;5105862;28;20212;-76
2022/05/11 09:34:29;;;;;;;4.50;3.33;;;;;;;25.92;32.61;99074.94;5106091;28;20044;-76
2022/05/11 09:37:04;;;;;;;3.95;2.75;;;;;;;27.11;31.33;99222.25;5106064;28;20048;-75
2022/05/11 09:39:52;;;;;;;3.78;3.08;;;;;;;27.00;31.00;99214.59;5104981;28;20044;-75
2022/05/11 09:42:32;;;;;;;4.95;2.95;;;;;;;26.94;30.52;99212.66;5105972;28;20040;-76
2022/05/11 09:45:05;;;;;;;6.00;2.85;;;;;;;27.04;32.13;99213.19;5106201;28;20048;-76
2022/05/11 09:48:02;;;;;;;3.80;2.83;;;;;;;27.12;32.66;99211.19;5105648;28;20040;-76
2022/05/11 09:50:30;;;;;;;4.65;3.08;;;;;;;27.18;32.51;99210.41;5105739;28;20386;-76
2022/05/11 09:53:16;;;;;;;4.05;3.03;;;;;;;27.23;30.39;99211.72;5105537;28;20040;-76
2022/05/11 09:55:45;;;;;;;4.72;2.92;;;;;;;27.23;31.23;99211.72;5105569;28;20056;-76
2022/05/11 09:58:28;;;;;;;3.75;2.50;;;;;;;27.26;30.25;99214.06;5105843;28;20346;-76
2022/05/11 10:01:11;;;;;;;4.50;2.90;;;;;;;27.32;30.44;99219.56;5103910;28;20086;-76
2022/05/11 10:03:51;;;;;;;3.42;2.70;;;;;;;26.85;30.39;99138.53;5105256;28;20044;-76
2022/05/11 10:06:26;;;;;;;4.97;3.65;;;;;;;27.38;30.79;99207.91;5105135;28;20250;-76
2022/05/11 10:09:00;;;;;;;4.82;2.97;;;;;;;26.79;30.05;99079.50;5105379;28;20047;-76
2022/05/11 10:11:36;;;;;;;;;;;;;;;27.48;28.77;99196.66;5105911;28;20212;-76
2022/05/11 10:23:03;;;;;;;4.47;2.88;;;;;;;27.68;30.49;99186.81;5105135;28;20056;-76
2022/05/11 10:25:39;;;;;;;5.95;3.55;;;;;;;27.53;30.20;99186.03;5105230;28;20036;-76
2022/05/11 10:28:26;;;;;;;7.43;3.10;;;;;;;27.33;29.88;99141.50;5105440;28;20040;-76
2022/05/11 10:31:07;;;;;;;3.00;2.42;;;;;;;27.61;30.53;99180.47;5104297;28;20105;-76
2022/05/11 10:33:49;;;;;;;4.35;2.85;;;;;;;27.67;29.74;99173.41;5105038;28;20040;-76
2022/05/11 10:36:30;;;;;;;6.07;3.15;;;;;;;27.63;29.42;99166.66;5105700;28;20048;-76
2022/05/11 10:39:23;;;;;;;3.65;2.80;;;;;;;27.54;29.07;99167.81;5105240;28;20044;-77
2022/05/11 10:42:07;;;;;;;6.65;3.42;;;;;;;27.51;29.24;99152.72;5105352;28;20048;-76
2022/05/11 10:44:53;;;;;;;5.57;3.38;;;;;;;27.65;28.06;99159.16;5105218;28;20036;-77
2022/05/11 10:47:39;;;;;;;3.92;2.75;;;;;;;27.75;27.22;99163.19;5104744;28;20044;-77
2022/05/11 10:50:22;;;;;;;3.95;2.47;;;;;;;27.68;27.85;99120.63;5104736;28;20086;-77
2022/05/11 10:53:18;;;;;;;4.75;2.90;;;;;;;28.00;26.73;99154.56;5104630;28;20040;-76
2022/05/11 10:55:58;;;;;;;3.42;2.75;;;;;;;28.23;27.79;99154.25;5104705;28;20047;-77
2022/05/11 10:58:59;;;;;;;4.53;2.88;;;;;;;27.87;27.19;99110.94;5104722;28;20044;-77
2022/05/11 11:01:45;;;;;;;3.78;2.78;;;;;;;28.01;27.32;99139.91;5104817;28;20082;-77
2022/05/11 11:04:50;;;;;;;4.38;2.50;;;;;;;27.91;26.75;99144.88;5104801;28;20044;-77
2022/05/11 11:07:30;;;;;;;3.65;2.92;;;;;;;27.39;27.82;99087.13;5104388;28;20044;-77
2022/05/11 11:10:27;;;;;;;3.50;2.53;;;;;;;27.66;27.24;99147.22;5104573;28;20315;-77
2022/05/11 11:13:13;;;;;;;6.47;2.92;;;;;;;27.51;27.97;99130.97;5106267;28;20116;-77
2022/05/11 11:15:45;;;;;;;5.50;2.70;;;;;;;27.52;29.15;99134.53;5108591;28;20070;-77
2022/05/11 11:18:18;;;;;;;3.70;2.80;;;;;;;27.67;28.34;99144.28;5108219;28;20087;-77
2022/05/11 11:20:50;;;;;;;4.20;3.10;;;;;;;27.77;29.12;99133.03;5108425;28;20036;-77
2022/05/11 11:23:32;;;;;;;3.88;2.88;;;;;;;27.37;27.63;99088.38;5107988;28;20043;-77
2022/05/11 11:26:07;;;;;;;3.40;2.58;;;;;;;27.78;28.01;99124.66;5108228;28;20040;-77
2022/05/11 11:29:18;;;;;;;4.97;2.90;;;;;;;28.12;27.09;99120.25;5107767;28;20043;-77
2022/05/11 11:32:13;;;;;;;4.10;3.22;;;;;;;27.16;26.34;98947.78;5107213;28;20177;-77
2022/05/11 11:34:49;;;;;;;4.03;2.72;;;;;;;27.79;27.56;99049.28;5107719;28;20288;-77
2022/05/11 11:37:43;;;;;;;4.70;3.00;;;;;;;28.12;26.90;99114.81;5107900;28;20052;-78
2022/05/11 11:40:37;;;;;;;3.70;2.20;;;;;;;27.69;27.23;99068.72;5107890;28;20036;-77
2022/05/11 11:43:43;;;;;;;8.05;3.50;;;;;;;27.58;27.14;99073.84;5105895;28;20450;-77
2022/05/11 11:46:38;;;;;;;4.38;3.30;;;;;;;27.57;27.42;99074.88;5108096;28;20284;-78
2022/05/11 11:49:12;;;;;;;5.05;3.30;;;;;;;26.79;28.16;98962.59;5107884;28;20043;-77
2022/05/11 11:51:58;;;;;;;4.68;3.20;;;;;;;27.74;27.31;99107.06;5107805;28;20300;-77
2022/05/11 11:54:46;;;;;;;4.13;3.00;;;;;;;26.44;27.28;98910.88;5107771;28;20040;-77
2022/05/11 11:57:36;;;;;;;4.32;3.72;;;;;;;27.72;28.41;99100.13;5108900;28;20040;-78
2022/05/11 12:00:52;;;;;;;7.35;4.38;;;;;;;27.29;28.14;99037.66;5107995;28;20044;-78
2022/05/11 12:03:23;;;;;;;4.03;3.47;;;;;;;27.40;28.71;99056.16;5107609;28;20052;-78
2022/05/11 12:15:01;;;;;;;5.38;3.03;;;;;;;27.59;28.53;99095.41;5107865;28;20231;-78
2022/05/11 12:17:34;;;;;;;5.68;2.88;;;;;;;27.51;27.81;99092.84;5107476;28;20093;-78
2022/05/11 12:20:10;;;;;;;5.07;4.32;;;;;;;27.65;28.38;99081.03;5106766;28;20292;-78
2022/05/11 12:22:46;;;;;;;5.35;3.65;;;;;;;27.66;28.46;99060.09;5106586;28;20381;-78
2022/05/11 12:25:28;;;;;;;4.82;3.75;;;;;;;27.72;28.35;99065.56;5106846;28;20062;-78
2022/05/11 12:28:03;;;;;;;4.03;3.22;;;;;;;27.30;28.69;99042.06;5107172;28;20093;-78
2022/05/11 12:30:43;;;;;;;5.88;3.05;;;;;;;27.42;28.19;99084.00;5107399;28;20039;-78
2022/05/11 12:33:21;;;;;;;4.43;3.22;;;;;;;27.54;28.67;99069.84;5107310;28;20086;-78
2022/05/11 12:35:52;;;;;;;3.78;2.88;;;;;;;26.55;28.55;98898.63;5107698;28;20039;-78
2022/05/11 12:38:30;;;;;;;4.85;3.33;;;;;;;27.63;27.83;99065.94;5107225;28;20307;-78
2022/05/11 12:41:10;;;;;;;3.63;2.85;;;;;;;27.56;27.98;99056.88;5107126;28;20082;-78
2022/05/11 12:43:53;;;;;;;4.88;3.50;;;;;;;27.63;27.93;99055.06;5108788;28;20044;-78
2022/05/11 12:46:26;;;;;;;3.78;2.97;;;;;;;26.46;28.54;98862.63;5108186;28;20040;-78
2022/05/11 12:49:01;;;;;;;8.18;3.05;;;;;;;27.67;29.30;99027.22;5108474;28;20043;-78
2022/05/11 12:51:35;;;;;;;5.00;3.42;;;;;;;27.85;28.89;99055.81;5110409;28;20243;-78
2022/05/11 12:54:10;;;;;;;5.60;3.15;;;;;;;23.69;29.57;98372.00;5109586;28;20123;-78